sensor_id;sensor_type;location;lat;lon;timestamp;P1;durP1;ratioP1;P2;durP2;ratioP2
10311;SDS011;5201;48.776;9.128;2023-04-28T00:01:41;3.40;;;1.83;;
10311;SDS011;5201;48.776;9.128;2023-04-28T00:04:07;5.80;;;2.23;;
10311;SDS011;5201;48.776;9.128;2023-04-28T00:06:33;6.80;;;2.47;;
10311;SDS011;5201;48.776;9.128;2023-04-28T00:08:58;5.63;;;3.00;;
10311;SDS011;5201;48.776;9.128;2023-04-28T00:11:24;4.30;;;2.43;;
10311;SDS011;5201;48.776;9.128;2023-04-28T00:13:50;3.77;;;2.40;;
10311;SDS011;5201;48.776;9.128;2023-04-28T00:16:15;4.20;;;2.77;;
10311;SDS011;5201;48.776;9.128;2023-04-28T00:18:41;4.07;;;2.27;;
10311;SDS011;5201;48.776;9.128;2023-04-28T00:21:07;6.40;;;2.30;;
10311;SDS011;5201;48.776;9.128;2023-04-28T00:23:32;4.70;;;2.47;;
10311;SDS011;5201;48.776;9.128;2023-04-28T00:25:58;3.00;;;2.50;;
10311;SDS011;5201;48.776;9.128;2023-04-28T00:28:23;8.13;;;2.60;;
10311;SDS011;5201;48.776;9.128;2023-04-28T00:30:49;6.83;;;2.60;;
10311;SDS011;5201;48.776;9.128;2023-04-28T00:33:15;5.63;;;2.30;;
10311;SDS011;5201;48.776;9.128;2023-04-28T00:35:40;7.50;;;2.77;;
10311;SDS011;5201;48.776;9.128;2023-04-28T00:38:06;2.53;;;2.20;;
10311;SDS011;5201;48.776;9.128;2023-04-28T00:40:36;6.63;;;2.47;;
10311;SDS011;5201;48.776;9.128;2023-04-28T00:43:03;6.67;;;2.60;;
10311;SDS011;5201;48.776;9.128;2023-04-28T00:45:29;2.77;;;2.17;;
10311;SDS011;5201;48.776;9.128;2023-04-28T00:47:55;5.10;;;2.00;;
10311;SDS011;5201;48.776;9.128;2023-04-28T00:50:21;5.80;;;2.20;;
10311;SDS011;5201;48.776;9.128;2023-04-28T00:52:48;4.27;;;2.30;;
10311;SDS011;5201;48.776;9.128;2023-04-28T00:55:15;4.27;;;2.97;;
10311;SDS011;5201;48.776;9.128;2023-04-28T00:57:41;2.93;;;1.83;;
10311;SDS011;5201;48.776;9.128;2023-04-28T01:00:07;3.97;;;1.80;;
10311;SDS011;5201;48.776;9.128;2023-04-28T01:02:36;2.20;;;1.90;;
10311;SDS011;5201;48.776;9.128;2023-04-28T01:05:03;3.70;;;2.17;;
10311;SDS011;5201;48.776;9.128;2023-04-28T01:07:29;3.93;;;1.97;;
10311;SDS011;5201;48.776;9.128;2023-04-28T01:09:55;2.63;;;1.60;;
10311;SDS011;5201;48.776;9.128;2023-04-28T01:12:21;3.30;;;1.80;;
10311;SDS011;5201;48.776;9.128;2023-04-28T01:14:47;4.03;;;1.80;;
10311;SDS011;5201;48.776;9.128;2023-04-28T01:17:13;5.37;;;2.03;;
10311;SDS011;5201;48.776;9.128;2023-04-28T01:19:39;5.97;;;1.73;;
10311;SDS011;5201;48.776;9.128;2023-04-28T01:22:05;6.43;;;1.60;;
10311;SDS011;5201;48.776;9.128;2023-04-28T01:24:30;4.47;;;1.43;;
10311;SDS011;5201;48.776;9.128;2023-04-28T01:26:56;2.13;;;1.67;;
10311;SDS011;5201;48.776;9.128;2023-04-28T01:29:22;1.60;;;1.50;;
10311;SDS011;5201;48.776;9.128;2023-04-28T01:31:47;5.57;;;1.73;;
10311;SDS011;5201;48.776;9.128;2023-04-28T01:34:13;1.87;;;1.40;;
10311;SDS011;5201;48.776;9.128;2023-04-28T01:36:38;2.07;;;1.17;;
10311;SDS011;5201;48.776;9.128;2023-04-28T01:39:04;4.20;;;1.53;;
10311;SDS011;5201;48.776;9.128;2023-04-28T01:41:30;2.83;;;1.50;;
10311;SDS011;5201;48.776;9.128;2023-04-28T01:43:58;1.60;;;1.50;;
10311;SDS011;5201;48.776;9.128;2023-04-28T01:46:24;1.40;;;1.30;;
10311;SDS011;5201;48.776;9.128;2023-04-28T01:48:49;1.60;;;1.37;;
10311;SDS011;5201;48.776;9.128;2023-04-28T01:51:15;4.13;;;1.33;;
10311;SDS011;5201;48.776;9.128;2023-04-28T01:53:41;2.73;;;1.40;;
10311;SDS011;5201;48.776;9.128;2023-04-28T01:59:28;6.57;;;1.67;;
10311;SDS011;5201;48.776;9.128;2023-04-28T02:01:54;2.43;;;1.50;;
10311;SDS011;5201;48.776;9.128;2023-04-28T02:04:19;3.37;;;1.70;;
10311;SDS011;5201;48.776;9.128;2023-04-28T02:06:45;2.60;;;1.30;;
10311;SDS011;5201;48.776;9.128;2023-04-28T02:09:10;2.33;;;1.30;;
10311;SDS011;5201;48.776;9.128;2023-04-28T02:11:36;1.87;;;1.40;;
10311;SDS011;5201;48.776;9.128;2023-04-28T02:14:01;5.37;;;1.57;;
10311;SDS011;5201;48.776;9.128;2023-04-28T02:16:27;1.30;;;1.20;;
10311;SDS011;5201;48.776;9.128;2023-04-28T02:18:52;2.27;;;1.20;;
10311;SDS011;5201;48.776;9.128;2023-04-28T02:21:18;1.40;;;1.30;;
10311;SDS011;5201;48.776;9.128;2023-04-28T02:23:44;2.77;;;1.47;;
10311;SDS011;5201;48.776;9.128;2023-04-28T02:26:09;2.13;;;1.40;;
10311;SDS011;5201;48.776;9.128;2023-04-28T02:28:35;1.53;;;1.27;;
10311;SDS011;5201;48.776;9.128;2023-04-28T02:31:04;2.80;;;1.57;;
10311;SDS011;5201;48.776;9.128;2023-04-28T02:33:34;1.40;;;1.30;;
10311;SDS011;5201;48.776;9.128;2023-04-28T02:36:01;2.13;;;1.50;;
10311;SDS011;5201;48.776;9.128;2023-04-28T02:38:28;2.00;;;1.50;;
10311;SDS011;5201;48.776;9.128;2023-04-28T02:41:00;2.30;;;1.70;;
10311;SDS011;5201;48.776;9.128;2023-04-28T02:43:28;1.97;;;1.30;;
10311;SDS011;5201;48.776;9.128;2023-04-28T02:45:55;1.40;;;1.30;;
10311;SDS011;5201;48.776;9.128;2023-04-28T02:48:21;4.63;;;1.40;;
10311;SDS011;5201;48.776;9.128;2023-04-28T02:50:47;1.33;;;1.20;;
10311;SDS011;5201;48.776;9.128;2023-04-28T02:53:12;1.40;;;1.30;;
10311;SDS011;5201;48.776;9.128;2023-04-28T02:55:41;1.83;;;1.50;;
10311;SDS011;5201;48.776;9.128;2023-04-28T02:58:06;1.23;;;1.00;;
10311;SDS011;5201;48.776;9.128;2023-04-28T03:00:32;1.17;;;0.90;;
10311;SDS011;5201;48.776;9.128;2023-04-28T03:02:58;1.77;;;1.30;;
10311;SDS011;5201;48.776;9.128;2023-04-28T03:05:23;2.57;;;1.40;;
10311;SDS011;5201;48.776;9.128;2023-04-28T03:07:49;2.37;;;1.33;;
10311;SDS011;5201;48.776;9.128;2023-04-28T03:10:14;5.63;;;1.40;;
10311;SDS011;5201;48.776;9.128;2023-04-28T03:12:40;2.23;;;1.27;;
10311;SDS011;5201;48.776;9.128;2023-04-28T03:15:06;4.27;;;1.50;;
10311;SDS011;5201;48.776;9.128;2023-04-28T03:17:33;1.80;;;1.07;;
10311;SDS011;5201;48.776;9.128;2023-04-28T03:20:00;1.40;;;1.30;;
10311;SDS011;5201;48.776;9.128;2023-04-28T03:22:26;1.50;;;1.13;;
10311;SDS011;5201;48.776;9.128;2023-04-28T03:24:52;1.47;;;1.20;;
10311;SDS011;5201;48.776;9.128;2023-04-28T03:27:18;1.63;;;1.30;;
10311;SDS011;5201;48.776;9.128;2023-04-28T03:29:43;1.30;;;1.20;;
10311;SDS011;5201;48.776;9.128;2023-04-28T03:32:09;2.70;;;1.30;;
10311;SDS011;5201;48.776;9.128;2023-04-28T03:34:34;1.93;;;1.10;;
10311;SDS011;5201;48.776;9.128;2023-04-28T03:37:00;1.90;;;1.40;;
10311;SDS011;5201;48.776;9.128;2023-04-28T03:39:26;3.07;;;1.30;;
10311;SDS011;5201;48.776;9.128;2023-04-28T03:41:51;4.20;;;1.80;;
10311;SDS011;5201;48.776;9.128;2023-04-28T03:44:17;1.90;;;1.33;;
10311;SDS011;5201;48.776;9.128;2023-04-28T03:46:43;2.93;;;1.80;;
10311;SDS011;5201;48.776;9.128;2023-04-28T03:49:08;4.67;;;1.90;;
10311;SDS011;5201;48.776;9.128;2023-04-28T03:51:34;2.83;;;1.93;;
10311;SDS011;5201;48.776;9.128;2023-04-28T03:54:00;2.23;;;1.40;;
10311;SDS011;5201;48.776;9.128;2023-04-28T03:56:26;2.73;;;1.50;;
10311;SDS011;5201;48.776;9.128;2023-04-28T03:58:51;1.70;;;1.23;;
10311;SDS011;5201;48.776;9.128;2023-04-28T04:01:17;1.67;;;1.43;;
10311;SDS011;5201;48.776;9.128;2023-04-28T04:03:42;3.43;;;1.83;;
10311;SDS011;5201;48.776;9.128;2023-04-28T04:06:08;1.83;;;1.53;;
10311;SDS011;5201;48.776;9.128;2023-04-28T04:08:33;1.53;;;1.37;;
10311;SDS011;5201;48.776;9.128;2023-04-28T04:10:59;1.83;;;1.60;;
10311;SDS011;5201;48.776;9.128;2023-04-28T04:13:25;1.30;;;1.20;;
10311;SDS011;5201;48.776;9.128;2023-04-28T04:15:50;1.73;;;1.47;;
10311;SDS011;5201;48.776;9.128;2023-04-28T04:18:19;5.23;;;1.30;;
10311;SDS011;5201;48.776;9.128;2023-04-28T04:20:44;2.00;;;1.40;;
10311;SDS011;5201;48.776;9.128;2023-04-28T04:23:10;2.93;;;1.50;;
10311;SDS011;5201;48.776;9.128;2023-04-28T04:25:35;1.37;;;1.20;;
10311;SDS011;5201;48.776;9.128;2023-04-28T04:28:01;2.00;;;1.43;;
10311;SDS011;5201;48.776;9.128;2023-04-28T04:30:27;13.10;;;1.80;;
10311;SDS011;5201;48.776;9.128;2023-04-28T04:32:52;4.57;;;1.57;;
10311;SDS011;5201;48.776;9.128;2023-04-28T04:35:18;3.87;;;1.63;;
10311;SDS011;5201;48.776;9.128;2023-04-28T04:37:44;1.43;;;1.20;;
10311;SDS011;5201;48.776;9.128;2023-04-28T04:40:09;2.67;;;1.80;;
10311;SDS011;5201;48.776;9.128;2023-04-28T04:42:35;5.97;;;1.50;;
10311;SDS011;5201;48.776;9.128;2023-04-28T04:45:01;2.60;;;1.33;;
10311;SDS011;5201;48.776;9.128;2023-04-28T04:47:26;2.20;;;1.73;;
10311;SDS011;5201;48.776;9.128;2023-04-28T04:49:52;3.03;;;1.87;;
10311;SDS011;5201;48.776;9.128;2023-04-28T04:52:18;4.23;;;1.40;;
10311;SDS011;5201;48.776;9.128;2023-04-28T04:54:44;1.30;;;1.20;;
10311;SDS011;5201;48.776;9.128;2023-04-28T04:57:10;1.60;;;1.30;;
10311;SDS011;5201;48.776;9.128;2023-04-28T04:59:36;5.30;;;2.23;;
10311;SDS011;5201;48.776;9.128;2023-04-28T05:02:01;2.80;;;1.03;;
10311;SDS011;5201;48.776;9.128;2023-04-28T05:04:27;2.50;;;1.67;;
10311;SDS011;5201;48.776;9.128;2023-04-28T05:06:53;2.23;;;1.50;;
10311;SDS011;5201;48.776;9.128;2023-04-28T05:09:18;4.40;;;1.50;;
10311;SDS011;5201;48.776;9.128;2023-04-28T05:11:44;2.37;;;1.60;;
10311;SDS011;5201;48.776;9.128;2023-04-28T05:14:10;2.90;;;1.60;;
10311;SDS011;5201;48.776;9.128;2023-04-28T05:16:36;1.47;;;1.37;;
10311;SDS011;5201;48.776;9.128;2023-04-28T05:19:02;1.80;;;1.20;;
10311;SDS011;5201;48.776;9.128;2023-04-28T05:21:28;2.33;;;1.70;;
10311;SDS011;5201;48.776;9.128;2023-04-28T05:23:55;2.50;;;1.50;;
10311;SDS011;5201;48.776;9.128;2023-04-28T05:26:21;2.03;;;1.60;;
10311;SDS011;5201;48.776;9.128;2023-04-28T05:28:47;2.40;;;1.73;;
10311;SDS011;5201;48.776;9.128;2023-04-28T05:31:13;4.90;;;1.80;;
10311;SDS011;5201;48.776;9.128;2023-04-28T05:33:38;3.40;;;1.70;;
10311;SDS011;5201;48.776;9.128;2023-04-28T05:36:04;3.07;;;1.57;;
10311;SDS011;5201;48.776;9.128;2023-04-28T05:38:30;8.47;;;2.17;;
10311;SDS011;5201;48.776;9.128;2023-04-28T05:40:57;4.43;;;2.07;;
10311;SDS011;5201;48.776;9.128;2023-04-28T05:43:23;2.77;;;1.97;;
10311;SDS011;5201;48.776;9.128;2023-04-28T05:45:48;4.20;;;2.10;;
10311;SDS011;5201;48.776;9.128;2023-04-28T05:48:14;3.00;;;1.97;;
10311;SDS011;5201;48.776;9.128;2023-04-28T05:50:40;3.97;;;1.90;;
10311;SDS011;5201;48.776;9.128;2023-04-28T05:53:06;4.60;;;2.10;;
10311;SDS011;5201;48.776;9.128;2023-04-28T05:55:32;4.00;;;1.97;;
10311;SDS011;5201;48.776;9.128;2023-04-28T05:57:58;2.33;;;2.03;;
10311;SDS011;5201;48.776;9.128;2023-04-28T06:00:24;2.50;;;1.90;;
10311;SDS011;5201;48.776;9.128;2023-04-28T06:02:49;2.67;;;1.90;;
10311;SDS011;5201;48.776;9.128;2023-04-28T06:05:15;7.27;;;2.43;;
10311;SDS011;5201;48.776;9.128;2023-04-28T06:07:41;5.03;;;2.70;;
10311;SDS011;5201;48.776;9.128;2023-04-28T06:10:06;3.63;;;2.27;;
10311;SDS011;5201;48.776;9.128;2023-04-28T06:12:33;2.90;;;2.20;;
10311;SDS011;5201;48.776;9.128;2023-04-28T06:14:58;2.20;;;2.00;;
10311;SDS011;5201;48.776;9.128;2023-04-28T06:17:24;5.27;;;2.20;;
10311;SDS011;5201;48.776;9.128;2023-04-28T06:19:49;3.37;;;2.20;;
10311;SDS011;5201;48.776;9.128;2023-04-28T06:22:18;5.37;;;2.07;;
10311;SDS011;5201;48.776;9.128;2023-04-28T06:24:44;3.00;;;2.27;;
10311;SDS011;5201;48.776;9.128;2023-04-28T06:27:09;4.70;;;2.10;;
10311;SDS011;5201;48.776;9.128;2023-04-28T06:29:35;6.37;;;1.97;;
10311;SDS011;5201;48.776;9.128;2023-04-28T06:32:01;3.23;;;2.10;;
10311;SDS011;5201;48.776;9.128;2023-04-28T06:34:27;5.07;;;2.23;;
10311;SDS011;5201;48.776;9.128;2023-04-28T06:36:53;2.80;;;2.00;;
10311;SDS011;5201;48.776;9.128;2023-04-28T06:39:20;3.00;;;2.17;;
10311;SDS011;5201;48.776;9.128;2023-04-28T06:41:46;5.83;;;2.20;;
10311;SDS011;5201;48.776;9.128;2023-04-28T06:44:11;3.93;;;2.70;;
10311;SDS011;5201;48.776;9.128;2023-04-28T06:46:37;2.57;;;2.00;;
10311;SDS011;5201;48.776;9.128;2023-04-28T06:49:03;3.57;;;2.10;;
10311;SDS011;5201;48.776;9.128;2023-04-28T06:51:30;4.03;;;2.43;;
10311;SDS011;5201;48.776;9.128;2023-04-28T06:53:58;4.93;;;2.17;;
10311;SDS011;5201;48.776;9.128;2023-04-28T06:56:24;2.73;;;2.20;;
10311;SDS011;5201;48.776;9.128;2023-04-28T06:58:50;3.37;;;2.27;;
10311;SDS011;5201;48.776;9.128;2023-04-28T07:01:15;2.53;;;1.87;;
10311;SDS011;5201;48.776;9.128;2023-04-28T07:03:41;2.33;;;1.57;;
10311;SDS011;5201;48.776;9.128;2023-04-28T07:06:07;3.73;;;2.03;;
10311;SDS011;5201;48.776;9.128;2023-04-28T07:08:33;3.00;;;2.10;;
10311;SDS011;5201;48.776;9.128;2023-04-28T07:10:59;5.27;;;1.80;;
10311;SDS011;5201;48.776;9.128;2023-04-28T07:13:28;2.20;;;1.80;;
10311;SDS011;5201;48.776;9.128;2023-04-28T07:15:54;4.43;;;2.20;;
10311;SDS011;5201;48.776;9.128;2023-04-28T07:18:20;2.03;;;1.60;;
10311;SDS011;5201;48.776;9.128;2023-04-28T07:20:46;2.47;;;1.60;;
10311;SDS011;5201;48.776;9.128;2023-04-28T07:23:12;2.00;;;1.90;;
10311;SDS011;5201;48.776;9.128;2023-04-28T07:25:38;2.30;;;1.63;;
10311;SDS011;5201;48.776;9.128;2023-04-28T07:28:05;3.70;;;1.67;;
10311;SDS011;5201;48.776;9.128;2023-04-28T07:30:31;3.07;;;1.90;;
10311;SDS011;5201;48.776;9.128;2023-04-28T07:32:57;1.93;;;1.70;;
10311;SDS011;5201;48.776;9.128;2023-04-28T07:35:22;2.00;;;1.53;;
10311;SDS011;5201;48.776;9.128;2023-04-28T07:37:48;2.90;;;1.63;;
10311;SDS011;5201;48.776;9.128;2023-04-28T07:40:15;2.07;;;1.70;;
10311;SDS011;5201;48.776;9.128;2023-04-28T07:42:41;3.40;;;1.80;;
10311;SDS011;5201;48.776;9.128;2023-04-28T07:45:06;2.27;;;1.60;;
10311;SDS011;5201;48.776;9.128;2023-04-28T07:47:32;2.03;;;1.50;;
10311;SDS011;5201;48.776;9.128;2023-04-28T07:49:58;3.70;;;1.87;;
10311;SDS011;5201;48.776;9.128;2023-04-28T07:52:27;1.60;;;1.50;;
10311;SDS011;5201;48.776;9.128;2023-04-28T07:54:52;1.97;;;1.40;;
10311;SDS011;5201;48.776;9.128;2023-04-28T07:57:18;4.23;;;1.40;;
10311;SDS011;5201;48.776;9.128;2023-04-28T07:59:44;6.07;;;2.10;;
10311;SDS011;5201;48.776;9.128;2023-04-28T08:02:09;2.27;;;1.77;;
10311;SDS011;5201;48.776;9.128;2023-04-28T08:04:37;3.50;;;2.60;;
10311;SDS011;5201;48.776;9.128;2023-04-28T08:07:03;4.77;;;3.03;;
10311;SDS011;5201;48.776;9.128;2023-04-28T08:09:28;5.50;;;2.70;;
10311;SDS011;5201;48.776;9.128;2023-04-28T08:11:54;3.27;;;1.90;;
10311;SDS011;5201;48.776;9.128;2023-04-28T08:14:20;2.03;;;1.80;;
10311;SDS011;5201;48.776;9.128;2023-04-28T08:16:46;2.60;;;1.80;;
10311;SDS011;5201;48.776;9.128;2023-04-28T08:19:12;2.57;;;1.90;;
10311;SDS011;5201;48.776;9.128;2023-04-28T08:21:38;4.17;;;1.90;;
10311;SDS011;5201;48.776;9.128;2023-04-28T08:24:03;2.13;;;1.90;;
10311;SDS011;5201;48.776;9.128;2023-04-28T08:26:29;5.93;;;1.90;;
10311;SDS011;5201;48.776;9.128;2023-04-28T08:28:55;3.73;;;2.03;;
10311;SDS011;5201;48.776;9.128;2023-04-28T08:31:20;2.70;;;2.17;;
10311;SDS011;5201;48.776;9.128;2023-04-28T08:33:46;4.47;;;2.40;;
10311;SDS011;5201;48.776;9.128;2023-04-28T08:36:15;2.53;;;2.33;;
10311;SDS011;5201;48.776;9.128;2023-04-28T08:38:42;3.07;;;2.40;;
10311;SDS011;5201;48.776;9.128;2023-04-28T08:41:09;2.70;;;1.97;;
10311;SDS011;5201;48.776;9.128;2023-04-28T08:43:36;2.63;;;2.40;;
10311;SDS011;5201;48.776;9.128;2023-04-28T08:46:04;2.77;;;2.20;;
10311;SDS011;5201;48.776;9.128;2023-04-28T08:48:33;7.23;;;2.73;;
10311;SDS011;5201;48.776;9.128;2023-04-28T08:51:06;3.80;;;2.77;;
10311;SDS011;5201;48.776;9.128;2023-04-28T08:53:34;3.90;;;2.83;;
10311;SDS011;5201;48.776;9.128;2023-04-28T08:56:02;4.43;;;2.40;;
10311;SDS011;5201;48.776;9.128;2023-04-28T08:58:30;5.17;;;2.10;;
10311;SDS011;5201;48.776;9.128;2023-04-28T09:00:56;3.23;;;2.07;;
10311;SDS011;5201;48.776;9.128;2023-04-28T09:03:21;2.60;;;2.27;;
10311;SDS011;5201;48.776;9.128;2023-04-28T09:05:47;3.80;;;2.17;;
10311;SDS011;5201;48.776;9.128;2023-04-28T09:08:13;3.43;;;1.97;;
10311;SDS011;5201;48.776;9.128;2023-04-28T09:10:39;2.70;;;2.50;;
10311;SDS011;5201;48.776;9.128;2023-04-28T09:13:05;4.10;;;2.13;;
10311;SDS011;5201;48.776;9.128;2023-04-28T09:15:34;2.83;;;1.90;;
10311;SDS011;5201;48.776;9.128;2023-04-28T09:18:04;2.00;;;1.77;;
10311;SDS011;5201;48.776;9.128;2023-04-28T09:20:32;5.63;;;2.17;;
10311;SDS011;5201;48.776;9.128;2023-04-28T09:23:15;5.27;;;2.20;;
10311;SDS011;5201;48.776;9.128;2023-04-28T09:28:20;2.70;;;1.97;;
10311;SDS011;5201;48.776;9.128;2023-04-28T09:30:46;2.77;;;1.93;;
10311;SDS011;5201;48.776;9.128;2023-04-28T09:33:12;2.50;;;1.93;;
10311;SDS011;5201;48.776;9.128;2023-04-28T09:35:40;2.00;;;1.80;;
10311;SDS011;5201;48.776;9.128;2023-04-28T09:38:12;4.93;;;2.10;;
10311;SDS011;5201;48.776;9.128;2023-04-28T09:40:51;3.27;;;2.20;;
10311;SDS011;5201;48.776;9.128;2023-04-28T09:43:23;4.27;;;2.10;;
10311;SDS011;5201;48.776;9.128;2023-04-28T09:45:57;3.60;;;1.90;;
10311;SDS011;5201;48.776;9.128;2023-04-28T09:48:27;1.67;;;1.57;;
10311;SDS011;5201;48.776;9.128;2023-04-28T09:50:58;2.03;;;1.60;;
10311;SDS011;5201;48.776;9.128;2023-04-28T09:53:25;2.20;;;1.50;;
10311;SDS011;5201;48.776;9.128;2023-04-28T09:55:52;1.50;;;1.40;;
10311;SDS011;5201;48.776;9.128;2023-04-28T09:58:19;5.50;;;1.30;;
10311;SDS011;5201;48.776;9.128;2023-04-28T10:00:47;1.37;;;1.27;;
10311;SDS011;5201;48.776;9.128;2023-04-28T10:03:17;0.97;;;0.80;;
10311;SDS011;5201;48.776;9.128;2023-04-28T10:05:47;1.10;;;1.00;;
10311;SDS011;5201;48.776;9.128;2023-04-28T10:08:13;0.80;;;0.80;;
10311;SDS011;5201;48.776;9.128;2023-04-28T10:10:39;1.67;;;1.20;;
10311;SDS011;5201;48.776;9.128;2023-04-28T10:13:05;0.70;;;0.47;;
10311;SDS011;5201;48.776;9.128;2023-04-28T10:15:32;0.70;;;0.70;;
10311;SDS011;5201;48.776;9.128;2023-04-28T10:17:59;3.33;;;0.50;;
10311;SDS011;5201;48.776;9.128;2023-04-28T10:20:27;0.77;;;0.53;;
10311;SDS011;5201;48.776;9.128;2023-04-28T10:23:07;1.03;;;0.43;;
10311;SDS011;5201;48.776;9.128;2023-04-28T10:25:53;0.77;;;0.50;;
10311;SDS011;5201;48.776;9.128;2023-04-28T10:28:21;2.57;;;0.50;;
10311;SDS011;5201;48.776;9.128;2023-04-28T10:33:42;0.83;;;0.50;;
10311;SDS011;5201;48.776;9.128;2023-04-28T10:36:08;2.23;;;0.60;;
10311;SDS011;5201;48.776;9.128;2023-04-28T10:38:35;0.93;;;0.50;;
10311;SDS011;5201;48.776;9.128;2023-04-28T10:41:32;2.20;;;0.27;;
10311;SDS011;5201;48.776;9.128;2023-04-28T10:43:58;0.30;;;0.30;;
10311;SDS011;5201;48.776;9.128;2023-04-28T10:46:23;0.70;;;0.70;;
10311;SDS011;5201;48.776;9.128;2023-04-28T11:06:32;0.23;;;0.23;;
10311;SDS011;5201;48.776;9.128;2023-04-28T11:08:59;0.30;;;0.30;;
10311;SDS011;5201;48.776;9.128;2023-04-28T11:11:32;0.20;;;0.20;;
10311;SDS011;5201;48.776;9.128;2023-04-28T11:19:19;3.27;;;0.30;;
10311;SDS011;5201;48.776;9.128;2023-04-28T11:21:47;0.20;;;0.20;;
10311;SDS011;5201;48.776;9.128;2023-04-28T11:24:13;0.30;;;0.10;;
10311;SDS011;5201;48.776;9.128;2023-04-28T11:26:39;2.90;;;0.37;;
10311;SDS011;5201;48.776;9.128;2023-04-28T11:29:06;0.20;;;0.20;;
10311;SDS011;5201;48.776;9.128;2023-04-28T11:31:32;1.03;;;0.20;;
10311;SDS011;5201;48.776;9.128;2023-04-28T11:34:05;0.20;;;0.13;;
10311;SDS011;5201;48.776;9.128;2023-04-28T11:36:39;0.50;;;0.23;;
10311;SDS011;5201;48.776;9.128;2023-04-28T11:39:06;0.20;;;0.20;;
10311;SDS011;5201;48.776;9.128;2023-04-28T11:41:34;4.83;;;0.20;;
10311;SDS011;5201;48.776;9.128;2023-04-28T11:46:35;0.80;;;0.30;;
10311;SDS011;5201;48.776;9.128;2023-04-28T11:49:29;0.27;;;0.10;;
10311;SDS011;5201;48.776;9.128;2023-04-28T11:52:02;0.37;;;0.17;;
10311;SDS011;5201;48.776;9.128;2023-04-28T11:54:30;0.10;;;0.10;;
10311;SDS011;5201;48.776;9.128;2023-04-28T11:56:56;1.40;;;0.30;;
10311;SDS011;5201;48.776;9.128;2023-04-28T11:59:29;0.20;;;0.20;;
10311;SDS011;5201;48.776;9.128;2023-04-28T12:01:59;0.93;;;0.20;;
10311;SDS011;5201;48.776;9.128;2023-04-28T12:09:31;0.20;;;0.20;;
10311;SDS011;5201;48.776;9.128;2023-04-28T12:12:01;0.20;;;0.20;;
10311;SDS011;5201;48.776;9.128;2023-04-28T12:14:29;1.37;;;0.30;;
10311;SDS011;5201;48.776;9.128;2023-04-28T12:16:57;0.23;;;0.20;;
10311;SDS011;5201;48.776;9.128;2023-04-28T12:19:22;0.23;;;0.20;;
10311;SDS011;5201;48.776;9.128;2023-04-28T12:24:27;0.40;;;0.27;;
10311;SDS011;5201;48.776;9.128;2023-04-28T12:26:53;0.20;;;0.20;;
10311;SDS011;5201;48.776;9.128;2023-04-28T12:29:38;0.30;;;0.30;;
10311;SDS011;5201;48.776;9.128;2023-04-28T12:32:07;0.80;;;0.20;;
10311;SDS011;5201;48.776;9.128;2023-04-28T12:34:34;2.87;;;0.60;;
10311;SDS011;5201;48.776;9.128;2023-04-28T12:37:04;0.30;;;0.30;;
10311;SDS011;5201;48.776;9.128;2023-04-28T12:39:33;1.57;;;0.30;;
10311;SDS011;5201;48.776;9.128;2023-04-28T12:42:00;1.17;;;0.20;;
10311;SDS011;5201;48.776;9.128;2023-04-28T12:44:26;0.40;;;0.30;;
10311;SDS011;5201;48.776;9.128;2023-04-28T12:47:02;0.53;;;0.30;;
10311;SDS011;5201;48.776;9.128;2023-04-28T12:49:29;0.20;;;0.20;;
10311;SDS011;5201;48.776;9.128;2023-04-28T12:51:55;1.20;;;0.60;;
10311;SDS011;5201;48.776;9.128;2023-04-28T12:54:21;2.03;;;0.30;;
10311;SDS011;5201;48.776;9.128;2023-04-28T12:56:46;0.20;;;0.20;;
10311;SDS011;5201;48.776;9.128;2023-04-28T12:59:13;0.20;;;0.20;;
10311;SDS011;5201;48.776;9.128;2023-04-28T13:01:38;0.30;;;0.30;;
10311;SDS011;5201;48.776;9.128;2023-04-28T13:04:04;3.03;;;0.40;;
10311;SDS011;5201;48.776;9.128;2023-04-28T13:06:30;3.03;;;0.60;;
10311;SDS011;5201;48.776;9.128;2023-04-28T13:08:56;0.70;;;0.50;;
10311;SDS011;5201;48.776;9.128;2023-04-28T13:11:22;0.40;;;0.40;;
10311;SDS011;5201;48.776;9.128;2023-04-28T13:13:51;1.97;;;0.47;;
10311;SDS011;5201;48.776;9.128;2023-04-28T13:16:17;0.50;;;0.50;;
10311;SDS011;5201;48.776;9.128;2023-04-28T13:18:43;0.40;;;0.40;;
10311;SDS011;5201;48.776;9.128;2023-04-28T13:21:08;1.07;;;0.60;;
10311;SDS011;5201;48.776;9.128;2023-04-28T13:23:34;0.97;;;0.43;;
10311;SDS011;5201;48.776;9.128;2023-04-28T13:25:59;2.17;;;0.40;;
10311;SDS011;5201;48.776;9.128;2023-04-28T13:28:26;0.40;;;0.30;;
10311;SDS011;5201;48.776;9.128;2023-04-28T13:30:52;1.30;;;0.37;;
10311;SDS011;5201;48.776;9.128;2023-04-28T13:33:18;0.97;;;0.40;;
10311;SDS011;5201;48.776;9.128;2023-04-28T13:35:43;0.60;;;0.60;;
10311;SDS011;5201;48.776;9.128;2023-04-28T13:38:09;1.07;;;0.50;;
10311;SDS011;5201;48.776;9.128;2023-04-28T13:40:35;2.33;;;0.47;;
10311;SDS011;5201;48.776;9.128;2023-04-28T13:43:00;0.70;;;0.70;;
10311;SDS011;5201;48.776;9.128;2023-04-28T13:45:26;0.83;;;0.63;;
10311;SDS011;5201;48.776;9.128;2023-04-28T13:47:55;1.00;;;0.73;;
10311;SDS011;5201;48.776;9.128;2023-04-28T13:50:21;2.50;;;0.50;;
10311;SDS011;5201;48.776;9.128;2023-04-28T13:52:46;0.63;;;0.60;;
10311;SDS011;5201;48.776;9.128;2023-04-28T13:55:12;0.70;;;0.70;;
10311;SDS011;5201;48.776;9.128;2023-04-28T13:57:38;1.97;;;0.60;;
10311;SDS011;5201;48.776;9.128;2023-04-28T14:00:04;1.60;;;0.97;;
10311;SDS011;5201;48.776;9.128;2023-04-28T14:02:30;0.87;;;0.80;;
10311;SDS011;5201;48.776;9.128;2023-04-28T14:04:55;1.33;;;1.00;;
10311;SDS011;5201;48.776;9.128;2023-04-28T14:07:21;2.23;;;0.80;;
10311;SDS011;5201;48.776;9.128;2023-04-28T14:09:48;3.50;;;0.60;;
10311;SDS011;5201;48.776;9.128;2023-04-28T14:12:13;2.67;;;0.60;;
10311;SDS011;5201;48.776;9.128;2023-04-28T14:14:40;1.20;;;1.10;;
10311;SDS011;5201;48.776;9.128;2023-04-28T14:17:06;0.60;;;0.60;;
10311;SDS011;5201;48.776;9.128;2023-04-28T14:19:32;2.83;;;1.00;;
10311;SDS011;5201;48.776;9.128;2023-04-28T14:21:58;0.97;;;0.70;;
10311;SDS011;5201;48.776;9.128;2023-04-28T14:24:24;1.37;;;1.27;;
10311;SDS011;5201;48.776;9.128;2023-04-28T14:26:49;1.23;;;0.93;;
10311;SDS011;5201;48.776;9.128;2023-04-28T14:29:16;2.90;;;0.80;;
10311;SDS011;5201;48.776;9.128;2023-04-28T14:31:42;2.57;;;0.70;;
10311;SDS011;5201;48.776;9.128;2023-04-28T14:34:07;0.20;;;0.20;;
10311;SDS011;5201;48.776;9.128;2023-04-28T14:36:33;0.30;;;0.30;;
10311;SDS011;5201;48.776;9.128;2023-04-28T14:38:59;1.20;;;0.30;;
10311;SDS011;5201;48.776;9.128;2023-04-28T14:41:24;1.27;;;0.30;;
10311;SDS011;5201;48.776;9.128;2023-04-28T14:43:50;1.03;;;0.40;;
10311;SDS011;5201;48.776;9.128;2023-04-28T14:46:15;0.20;;;0.20;;
10311;SDS011;5201;48.776;9.128;2023-04-28T14:48:46;0.30;;;0.20;;
10311;SDS011;5201;48.776;9.128;2023-04-28T14:51:13;0.77;;;0.20;;
10311;SDS011;5201;48.776;9.128;2023-04-28T14:53:38;1.53;;;0.10;;
10311;SDS011;5201;48.776;9.128;2023-04-28T14:56:05;0.97;;;0.20;;
10311;SDS011;5201;48.776;9.128;2023-04-28T14:58:31;0.20;;;0.20;;
10311;SDS011;5201;48.776;9.128;2023-04-28T15:00:56;2.80;;;0.30;;
10311;SDS011;5201;48.776;9.128;2023-04-28T15:03:22;0.30;;;0.30;;
10311;SDS011;5201;48.776;9.128;2023-04-28T15:05:48;0.20;;;0.20;;
10311;SDS011;5201;48.776;9.128;2023-04-28T15:08:13;0.20;;;0.20;;
10311;SDS011;5201;48.776;9.128;2023-04-28T15:10:39;1.50;;;0.20;;
10311;SDS011;5201;48.776;9.128;2023-04-28T15:13:05;0.40;;;0.30;;
10311;SDS011;5201;48.776;9.128;2023-04-28T15:15:31;0.50;;;0.20;;
10311;SDS011;5201;48.776;9.128;2023-04-28T15:17:57;1.50;;;0.30;;
10311;SDS011;5201;48.776;9.128;2023-04-28T15:20:33;0.20;;;0.20;;
10311;SDS011;5201;48.776;9.128;2023-04-28T15:23:02;0.50;;;0.43;;
10311;SDS011;5201;48.776;9.128;2023-04-28T15:25:27;0.20;;;0.20;;
10311;SDS011;5201;48.776;9.128;2023-04-28T15:27:53;0.60;;;0.23;;
10311;SDS011;5201;48.776;9.128;2023-04-28T15:30:18;1.23;;;0.10;;
10311;SDS011;5201;48.776;9.128;2023-04-28T15:32:45;0.20;;;0.20;;
10311;SDS011;5201;48.776;9.128;2023-04-28T15:35:12;4.60;;;0.30;;
10311;SDS011;5201;48.776;9.128;2023-04-28T15:37:44;0.60;;;0.60;;
10311;SDS011;5201;48.776;9.128;2023-04-28T15:40:15;0.73;;;0.20;;